sensor_id;sensor_type;location;lat;lon;timestamp;pressure;altitude;pressure_sealevel;temperature;humidity
57192;BME280;43052;52.588;13.396;2023-03-21T00:00:16;101243.59;;;9.12;62.51
57192;BME280;43052;52.588;13.396;2023-03-21T00:02:41;101246.25;;;9.17;62.86
57192;BME280;43052;52.588;13.396;2023-03-21T00:05:07;101235.78;;;9.12;62.85
57192;BME280;43052;52.588;13.396;2023-03-21T00:07:32;101238.38;;;9.12;62.60
57192;BME280;43052;52.588;13.396;2023-03-21T00:09:57;101237.53;;;9.13;62.57
57192;BME280;43052;52.588;13.396;2023-03-21T00:12:22;101239.28;;;9.14;62.49
57192;BME280;43052;52.588;13.396;2023-03-21T00:14:48;101239.28;;;9.16;62.50
57192;BME280;43052;52.588;13.396;2023-03-21T00:17:13;101240.13;;;9.13;62.56
57192;BME280;43052;52.588;13.396;2023-03-21T00:19:40;101237.53;;;9.15;62.39
57192;BME280;43052;52.588;13.396;2023-03-21T00:22:05;101230.59;;;9.17;62.28
57192;BME280;43052;52.588;13.396;2023-03-21T00:24:31;101234.06;;;9.14;62.22
57192;BME280;43052;52.588;13.396;2023-03-21T00:26:56;101230.47;;;9.04;62.00
57192;BME280;43052;52.588;13.396;2023-03-21T00:29:21;101230.47;;;9.04;62.16
57192;BME280;43052;52.588;13.396;2023-03-21T00:31:46;101230.47;;;9.01;62.09
57192;BME280;43052;52.588;13.396;2023-03-21T00:34:11;101230.47;;;9.04;62.39
57192;BME280;43052;52.588;13.396;2023-03-21T00:36:37;101226.16;;;9.03;62.27
57192;BME280;43052;52.588;13.396;2023-03-21T00:39:02;101226.13;;;9.02;62.00
57192;BME280;43052;52.588;13.396;2023-03-21T00:41:30;101229.63;;;9.04;62.23
57192;BME280;43052;52.588;13.396;2023-03-21T00:43:55;101220.94;;;9.06;62.37
57192;BME280;43052;52.588;13.396;2023-03-21T00:46:22;101219.22;;;9.08;62.04
57192;BME280;43052;52.588;13.396;2023-03-21T00:48:47;101221.78;;;9.05;62.07
57192;BME280;43052;52.588;13.396;2023-03-21T00:51:22;101218.31;;;9.03;61.87
57192;BME280;43052;52.588;13.396;2023-03-21T00:53:52;101223.53;;;9.06;62.24
57192;BME280;43052;52.588;13.396;2023-03-21T00:56:17;101216.56;;;9.05;61.95
57192;BME280;43052;52.588;13.396;2023-03-21T00:58:42;101218.31;;;9.06;62.25
57192;BME280;43052;52.588;13.396;2023-03-21T01:01:07;101216.59;;;9.08;62.12
57192;BME280;43052;52.588;13.396;2023-03-21T01:03:33;101215.72;;;9.06;62.19
57192;BME280;43052;52.588;13.396;2023-03-21T01:06:09;101214.00;;;9.07;62.11
57192;BME280;43052;52.588;13.396;2023-03-21T01:08:39;101207.88;;;9.08;62.16
57192;BME280;43052;52.588;13.396;2023-03-21T01:11:08;101208.81;;;9.15;62.11
57192;BME280;43052;52.588;13.396;2023-03-21T01:13:33;101210.56;;;9.16;62.26
57192;BME280;43052;52.588;13.396;2023-03-21T01:15:59;101206.25;;;9.18;62.23
57192;BME280;43052;52.588;13.396;2023-03-21T01:18:27;101202.75;;;9.14;62.37
57192;BME280;43052;52.588;13.396;2023-03-21T01:20:55;101211.44;;;9.12;62.39
57192;BME280;43052;52.588;13.396;2023-03-21T01:23:21;101203.59;;;9.13;62.36
57192;BME280;43052;52.588;13.396;2023-03-21T01:25:48;101211.44;;;9.15;62.31
57192;BME280;43052;52.588;13.396;2023-03-21T01:28:15;101205.34;;;9.14;62.29
57192;BME280;43052;52.588;13.396;2023-03-21T01:30:45;101203.56;;;9.08;62.51
57192;BME280;43052;52.588;13.396;2023-03-21T01:33:11;101202.72;;;9.09;62.52
57192;BME280;43052;52.588;13.396;2023-03-21T01:35:36;101202.66;;;9.06;62.71
57192;BME280;43052;52.588;13.396;2023-03-21T01:38:01;101200.03;;;8.99;62.62
57192;BME280;43052;52.588;13.396;2023-03-21T01:40:27;101211.31;;;8.99;62.80
57192;BME280;43052;52.588;13.396;2023-03-21T01:42:52;101215.63;;;8.97;62.68
57192;BME280;43052;52.588;13.396;2023-03-21T01:48:21;101206.03;;;8.90;62.93
57192;BME280;43052;52.588;13.396;2023-03-21T01:50:48;101206.00;;;8.88;62.79
57192;BME280;43052;52.588;13.396;2023-03-21T01:53:14;101203.41;;;8.88;62.68
57192;BME280;43052;52.588;13.396;2023-03-21T01:55:40;101205.16;;;8.92;62.79
57192;BME280;43052;52.588;13.396;2023-03-21T01:58:06;101206.91;;;8.92;62.91
57192;BME280;43052;52.588;13.396;2023-03-21T02:00:33;101200.84;;;8.93;62.87
57192;BME280;43052;52.588;13.396;2023-03-21T02:03:04;101194.72;;;8.89;62.99
57192;BME280;43052;52.588;13.396;2023-03-21T02:05:55;101202.50;;;8.88;63.15
57192;BME280;43052;52.588;13.396;2023-03-21T02:08:24;101199.91;;;8.88;63.09
57192;BME280;43052;52.588;13.396;2023-03-21T02:10:50;101202.56;;;8.89;63.00
57192;BME280;43052;52.588;13.396;2023-03-21T02:13:15;101202.50;;;8.86;63.24
57192;BME280;43052;52.588;13.396;2023-03-21T02:15:45;101201.66;;;8.86;63.30
57192;BME280;43052;52.588;13.396;2023-03-21T02:18:21;101197.34;;;8.89;63.07
57192;BME280;43052;52.588;13.396;2023-03-21T02:26:55;101201.78;;;9.01;62.88
57192;BME280;43052;52.588;13.396;2023-03-21T02:29:38;101192.16;;;8.97;62.69
57192;BME280;43052;52.588;13.396;2023-03-21T02:35:41;101186.09;;;8.98;63.12
57192;BME280;43052;52.588;13.396;2023-03-21T02:40:49;101187.75;;;8.91;63.12
57192;BME280;43052;52.588;13.396;2023-03-21T02:43:43;101199.94;;;8.92;63.16
57192;BME280;43052;52.588;13.396;2023-03-21T02:46:20;101192.09;;;8.88;63.29
57192;BME280;43052;52.588;13.396;2023-03-21T02:48:59;101192.91;;;8.79;63.45
57192;BME280;43052;52.588;13.396;2023-03-21T02:51:26;101197.16;;;8.71;63.54
57192;BME280;43052;52.588;13.396;2023-03-21T02:53:58;101191.88;;;8.63;63.98
57192;BME280;43052;52.588;13.396;2023-03-21T02:56:26;101189.28;;;8.65;64.12
57192;BME280;43052;52.588;13.396;2023-03-21T02:58:52;101193.63;;;8.66;64.19
57192;BME280;43052;52.588;13.396;2023-03-21T03:01:17;101193.59;;;8.61;64.23
57192;BME280;43052;52.588;13.396;2023-03-21T03:03:42;101190.13;;;8.60;64.26
57192;BME280;43052;52.588;13.396;2023-03-21T03:06:43;101201.34;;;8.56;64.75
57192;BME280;43052;52.588;13.396;2023-03-21T03:09:36;101197.94;;;8.60;64.61
57192;BME280;43052;52.588;13.396;2023-03-21T03:12:26;101200.59;;;8.65;64.42
57192;BME280;43052;52.588;13.396;2023-03-21T03:15:21;101202.38;;;8.71;64.40
57192;BME280;43052;52.588;13.396;2023-03-21T03:18:12;101204.09;;;8.70;64.39
57192;BME280;43052;52.588;13.396;2023-03-21T03:23:35;101202.31;;;8.63;65.04
57192;BME280;43052;52.588;13.396;2023-03-21T03:26:28;101197.91;;;8.56;65.32
57192;BME280;43052;52.588;13.396;2023-03-21T03:28:59;101197.91;;;8.57;65.07
57192;BME280;43052;52.588;13.396;2023-03-21T03:31:28;101198.84;;;8.64;65.59
57192;BME280;43052;52.588;13.396;2023-03-21T03:33:59;101201.44;;;8.64;65.60
57192;BME280;43052;52.588;13.396;2023-03-21T03:36:30;101199.66;;;8.60;65.76
57192;BME280;43052;52.588;13.396;2023-03-21T03:39:02;101199.66;;;8.60;65.86
57192;BME280;43052;52.588;13.396;2023-03-21T03:41:29;101205.75;;;8.60;65.97
57192;BME280;43052;52.588;13.396;2023-03-21T03:43:56;101206.63;;;8.61;66.32
57192;BME280;43052;52.588;13.396;2023-03-21T03:46:31;101206.56;;;8.56;66.43
57192;BME280;43052;52.588;13.396;2023-03-21T03:49:08;101204.78;;;8.51;66.42
57192;BME280;43052;52.588;13.396;2023-03-21T03:51:53;101217.78;;;8.48;66.72
57192;BME280;43052;52.588;13.396;2023-03-21T03:54:24;101213.44;;;8.48;66.87
57192;BME280;43052;52.588;13.396;2023-03-21T03:56:50;101208.28;;;8.50;66.75
57192;BME280;43052;52.588;13.396;2023-03-21T03:59:16;101211.78;;;8.56;67.00
57192;BME280;43052;52.588;13.396;2023-03-21T04:01:43;101206.56;;;8.56;66.83
57192;BME280;43052;52.588;13.396;2023-03-21T04:04:09;101206.53;;;8.52;66.76
57192;BME280;43052;52.588;13.396;2023-03-21T04:06:34;101207.38;;;8.51;67.19
57192;BME280;43052;52.588;13.396;2023-03-21T04:09:00;101205.72;;;8.54;67.08
57192;BME280;43052;52.588;13.396;2023-03-21T04:11:25;101207.47;;;8.57;67.59
57192;BME280;43052;52.588;13.396;2023-03-21T04:13:51;101194.38;;;8.54;67.56
57192;BME280;43052;52.588;13.396;2023-03-21T04:16:17;101191.78;;;8.54;67.92
57192;BME280;43052;52.588;13.396;2023-03-21T04:18:43;101197.03;;;8.58;68.09
57192;BME280;43052;52.588;13.396;2023-03-21T04:21:10;101197.94;;;8.60;68.29
57192;BME280;43052;52.588;13.396;2023-03-21T04:23:36;101188.31;;;8.56;68.02
57192;BME280;43052;52.588;13.396;2023-03-21T04:26:03;101196.28;;;8.67;68.16
57192;BME280;43052;52.588;13.396;2023-03-21T04:28:28;101204.97;;;8.69;68.30
57192;BME280;43052;52.588;13.396;2023-03-21T04:30:53;101202.34;;;8.68;68.42
57192;BME280;43052;52.588;13.396;2023-03-21T04:33:21;101203.19;;;8.67;68.58
57192;BME280;43052;52.588;13.396;2023-03-21T04:35:52;101194.47;;;8.61;68.73
57192;BME280;43052;52.588;13.396;2023-03-21T04:38:24;101199.69;;;8.61;69.00
57192;BME280;43052;52.588;13.396;2023-03-21T04:40:50;101199.66;;;8.58;68.97
57192;BME280;43052;52.588;13.396;2023-03-21T04:43:16;101200.47;;;8.53;69.37
57192;BME280;43052;52.588;13.396;2023-03-21T04:45:41;101199.59;;;8.52;69.22
57192;BME280;43052;52.588;13.396;2023-03-21T04:48:07;101203.97;;;8.55;69.44
57192;BME280;43052;52.588;13.396;2023-03-21T04:50:32;101201.34;;;8.53;69.68
57192;BME280;43052;52.588;13.396;2023-03-21T04:52:57;101206.56;;;8.56;69.59
57192;BME280;43052;52.588;13.396;2023-03-21T04:55:22;101208.31;;;8.54;69.32
57192;BME280;43052;52.588;13.396;2023-03-21T04:57:50;101197.88;;;8.54;69.48
57192;BME280;43052;52.588;13.396;2023-03-21T05:00:16;101210.94;;;8.56;69.20
57192;BME280;43052;52.588;13.396;2023-03-21T05:02:41;101199.59;;;8.54;69.54
57192;BME280;43052;52.588;13.396;2023-03-21T05:05:07;101208.28;;;8.53;69.42
57192;BME280;43052;52.588;13.396;2023-03-21T05:07:36;101204.75;;;8.48;69.80
57192;BME280;43052;52.588;13.396;2023-03-21T05:10:01;101205.59;;;8.45;69.94
57192;BME280;43052;52.588;13.396;2023-03-21T05:12:27;101206.47;;;8.47;70.10
57192;BME280;43052;52.588;13.396;2023-03-21T05:14:52;101199.56;;;8.49;70.07
57192;BME280;43052;52.588;13.396;2023-03-21T05:17:17;101204.78;;;8.51;70.35
57192;BME280;43052;52.588;13.396;2023-03-21T05:19:49;101197.00;;;8.54;70.41
57192;BME280;43052;52.588;13.396;2023-03-21T05:22:16;101194.44;;;8.57;70.23
57192;BME280;43052;52.588;13.396;2023-03-21T05:24:43;101201.41;;;8.61;70.57
57192;BME280;43052;52.588;13.396;2023-03-21T05:27:14;101203.16;;;8.60;70.56
57192;BME280;43052;52.588;13.396;2023-03-21T05:30:06;101199.66;;;8.60;70.41
57192;BME280;43052;52.588;13.396;2023-03-21T05:32:33;101198.78;;;8.58;70.73
57192;BME280;43052;52.588;13.396;2023-03-21T05:34:58;101198.78;;;8.61;70.61
57192;BME280;43052;52.588;13.396;2023-03-21T05:37:24;101205.84;;;8.68;70.77
57192;BME280;43052;52.588;13.396;2023-03-21T05:39:49;101199.78;;;8.74;70.44
57192;BME280;43052;52.588;13.396;2023-03-21T05:42:15;101197.22;;;8.78;70.76
57192;BME280;43052;52.588;13.396;2023-03-21T05:44:40;101192.94;;;8.84;70.60
57192;BME280;43052;52.588;13.396;2023-03-21T05:47:05;101199.06;;;8.89;70.66
57192;BME280;43052;52.588;13.396;2023-03-21T05:49:31;101197.38;;;8.94;70.78
57192;BME280;43052;52.588;13.396;2023-03-21T05:51:56;101189.63;;;9.05;70.97
57192;BME280;43052;52.588;13.396;2023-03-21T05:54:22;101200.13;;;9.17;70.58
57192;BME280;43052;52.588;13.396;2023-03-21T05:56:47;101203.69;;;9.29;70.20
57192;BME280;43052;52.588;13.396;2023-03-21T05:59:12;101199.47;;;9.46;69.91
57192;BME280;43052;52.588;13.396;2023-03-21T06:01:37;101199.53;;;9.55;69.78
57192;BME280;43052;52.588;13.396;2023-03-21T06:04:03;101199.53;;;9.60;69.82
57192;BME280;43052;52.588;13.396;2023-03-21T06:06:28;101199.53;;;9.60;69.75
57192;BME280;43052;52.588;13.396;2023-03-21T06:08:53;101202.16;;;9.62;69.68
57192;BME280;43052;52.588;13.396;2023-03-21T06:11:23;101208.28;;;9.62;69.77
57192;BME280;43052;52.588;13.396;2023-03-21T06:13:49;101202.16;;;9.60;69.66
57192;BME280;43052;52.588;13.396;2023-03-21T06:16:15;101211.75;;;9.61;69.76
57192;BME280;43052;52.588;13.396;2023-03-21T06:18:40;101206.53;;;9.61;69.58
57192;BME280;43052;52.588;13.396;2023-03-21T06:21:05;101206.50;;;9.55;69.70
57192;BME280;43052;52.588;13.396;2023-03-21T06:23:32;101215.22;;;9.60;69.62
57192;BME280;43052;52.588;13.396;2023-03-21T06:25:57;101204.78;;;9.59;69.49
57192;BME280;43052;52.588;13.396;2023-03-21T06:28:22;101214.34;;;9.61;69.63
57192;BME280;43052;52.588;13.396;2023-03-21T06:30:47;101208.28;;;9.67;69.66
57192;BME280;43052;52.588;13.396;2023-03-21T06:33:13;101215.28;;;9.72;69.34
57192;BME280;43052;52.588;13.396;2023-03-21T06:35:38;101211.84;;;9.80;69.38
57192;BME280;43052;52.588;13.396;2023-03-21T06:38:03;101211.88;;;9.86;69.31
57192;BME280;43052;52.588;13.396;2023-03-21T06:40:28;101216.22;;;9.87;69.14
57192;BME280;43052;52.588;13.396;2023-03-21T06:42:54;101215.38;;;9.88;68.98
57192;BME280;43052;52.588;13.396;2023-03-21T06:45:19;101214.50;;;9.89;68.96
57192;BME280;43052;52.588;13.396;2023-03-21T06:47:45;101217.13;;;9.95;68.78
57192;BME280;43052;52.588;13.396;2023-03-21T06:50:10;101211.03;;;9.92;68.72
57192;BME280;43052;52.588;13.396;2023-03-21T06:52:35;101217.09;;;9.92;68.54
57192;BME280;43052;52.588;13.396;2023-03-21T06:55:00;101217.16;;;10.01;68.71
57192;BME280;43052;52.588;13.396;2023-03-21T06:57:26;101223.28;;;10.10;68.41
57192;BME280;43052;52.588;13.396;2023-03-21T06:59:51;101219.84;;;10.18;68.39
57192;BME280;43052;52.588;13.396;2023-03-21T07:02:16;101217.25;;;10.28;68.24
57192;BME280;43052;52.588;13.396;2023-03-21T07:04:42;101219.88;;;10.31;68.06
57192;BME280;43052;52.588;13.396;2023-03-21T07:07:07;101216.38;;;10.27;68.29
57192;BME280;43052;52.588;13.396;2023-03-21T07:09:32;101219.84;;;10.23;68.60
57192;BME280;43052;52.588;13.396;2023-03-21T07:11:57;101214.63;;;10.23;68.28
57192;BME280;43052;52.588;13.396;2023-03-21T07:14:22;101217.25;;;10.23;68.50
57192;BME280;43052;52.588;13.396;2023-03-21T07:16:48;101222.47;;;10.23;68.36
57192;BME280;43052;52.588;13.396;2023-03-21T07:19:14;101218.06;;;10.11;68.22
57192;BME280;43052;52.588;13.396;2023-03-21T07:21:40;101227.63;;;10.03;68.46
57192;BME280;43052;52.588;13.396;2023-03-21T07:24:06;101227.59;;;9.98;68.58
57192;BME280;43052;52.588;13.396;2023-03-21T07:26:31;101232.81;;;9.95;68.79
57192;BME280;43052;52.588;13.396;2023-03-21T07:28:57;101234.56;;;10.01;69.12
57192;BME280;43052;52.588;13.396;2023-03-21T07:31:22;101228.47;;;9.96;68.89
57192;BME280;43052;52.588;13.396;2023-03-21T07:33:50;101232.81;;;9.94;68.96
57192;BME280;43052;52.588;13.396;2023-03-21T07:36:16;101235.41;;;9.91;68.91
57192;BME280;43052;52.588;13.396;2023-03-21T07:38:43;101239.75;;;9.93;69.13
57192;BME280;43052;52.588;13.396;2023-03-21T07:41:08;101226.69;;;9.93;68.92
57192;BME280;43052;52.588;13.396;2023-03-21T07:43:34;101222.34;;;9.91;69.17
57192;BME280;43052;52.588;13.396;2023-03-21T07:46:00;101231.09;;;9.97;69.21
57192;BME280;43052;52.588;13.396;2023-03-21T07:48:26;101229.34;;;9.99;69.10
57192;BME280;43052;52.588;13.396;2023-03-21T07:50:51;101233.72;;;10.02;69.21
57192;BME280;43052;52.588;13.396;2023-03-21T07:53:17;101229.38;;;10.04;69.25
57192;BME280;43052;52.588;13.396;2023-03-21T07:55:42;101228.50;;;10.07;69.26
57192;BME280;43052;52.588;13.396;2023-03-21T07:58:08;101225.91;;;10.07;69.34
57192;BME280;43052;52.588;13.396;2023-03-21T08:00:33;101233.75;;;10.17;69.12
57192;BME280;43052;52.588;13.396;2023-03-21T08:02:59;101224.19;;;10.23;69.39
57192;BME280;43052;52.588;13.396;2023-03-21T08:05:32;101227.72;;;10.26;69.43
57192;BME280;43052;52.588;13.396;2023-03-21T08:07:58;101222.47;;;10.26;69.55
57192;BME280;43052;52.588;13.396;2023-03-21T08:10:24;101226.84;;;10.29;69.12
57192;BME280;43052;52.588;13.396;2023-03-21T08:12:49;101223.34;;;10.28;69.14
57192;BME280;43052;52.588;13.396;2023-03-21T08:15:14;101229.44;;;10.30;69.13
57192;BME280;43052;52.588;13.396;2023-03-21T08:17:41;101222.53;;;10.40;69.09
57192;BME280;43052;52.588;13.396;2023-03-21T08:20:11;101225.19;;;10.53;69.01
57192;BME280;43052;52.588;13.396;2023-03-21T08:22:37;101232.16;;;10.55;68.98
57192;BME280;43052;52.588;13.396;2023-03-21T08:25:05;101227.81;;;10.60;68.95
57192;BME280;43052;52.588;13.396;2023-03-21T08:27:31;101232.16;;;10.58;68.77
57192;BME280;43052;52.588;13.396;2023-03-21T08:29:57;101226.06;;;10.59;68.88
57192;BME280;43052;52.588;13.396;2023-03-21T08:32:23;101228.69;;;10.65;68.86
57192;BME280;43052;52.588;13.396;2023-03-21T08:34:59;101232.22;;;10.71;68.99
57192;BME280;43052;52.588;13.396;2023-03-21T08:37:26;101229.56;;;10.74;69.26
57192;BME280;43052;52.588;13.396;2023-03-21T08:39:52;101227.84;;;10.74;69.21
57192;BME280;43052;52.588;13.396;2023-03-21T08:42:18;101233.94;;;10.79;69.17
57192;BME280;43052;52.588;13.396;2023-03-21T08:44:43;101226.13;;;10.92;69.38
57192;BME280;43052;52.588;13.396;2023-03-21T08:47:09;101226.13;;;10.98;69.11
57192;BME280;43052;52.588;13.396;2023-03-21T08:49:35;101226.97;;;11.06;68.78
57192;BME280;43052;52.588;13.396;2023-03-21T08:52:08;101231.34;;;11.18;68.80
57192;BME280;43052;52.588;13.396;2023-03-21T08:54:33;101231.31;;;11.24;68.66
57192;BME280;43052;52.588;13.396;2023-03-21T08:56:58;101222.63;;;11.24;68.80
57192;BME280;43052;52.588;13.396;2023-03-21T08:59:24;101220.00;;;11.28;68.64
57192;BME280;43052;52.588;13.396;2023-03-21T09:01:52;101221.75;;;11.29;68.45
57192;BME280;43052;52.588;13.396;2023-03-21T09:04:18;101224.38;;;11.33;68.69
57192;BME280;43052;52.588;13.396;2023-03-21T09:06:44;101220.84;;;11.32;68.59
57192;BME280;43052;52.588;13.396;2023-03-21T09:09:11;101231.31;;;11.37;68.62
57192;BME280;43052;52.588;13.396;2023-03-21T09:11:37;101226.09;;;11.37;68.52
57192;BME280;43052;52.588;13.396;2023-03-21T09:14:02;101232.19;;;11.31;68.18
57192;BME280;43052;52.588;13.396;2023-03-21T09:16:27;101238.31;;;11.24;68.38
57192;BME280;43052;52.588;13.396;2023-03-21T09:18:52;101235.69;;;11.19;68.50
57192;BME280;43052;52.588;13.396;2023-03-21T09:21:22;101234.81;;;11.26;68.65
57192;BME280;43052;52.588;13.396;2023-03-21T09:23:49;101230.47;;;11.27;68.50
57192;BME280;43052;52.588;13.396;2023-03-21T09:26:19;101223.50;;;11.26;68.84
57192;BME280;43052;52.588;13.396;2023-03-21T09:28:45;101228.72;;;11.27;68.93
57192;BME280;43052;52.588;13.396;2023-03-21T09:31:11;101226.97;;;11.39;68.84
57192;BME280;43052;52.588;13.396;2023-03-21T09:33:41;101232.19;;;11.53;68.37
57192;BME280;43052;52.588;13.396;2023-03-21T09:36:08;101223.41;;;11.66;68.33
57192;BME280;43052;52.588;13.396;2023-03-21T09:38:42;101226.84;;;11.82;68.19
57192;BME280;43052;52.588;13.396;2023-03-21T09:44:30;101230.28;;;11.97;67.68
57192;BME280;43052;52.588;13.396;2023-03-21T09:47:05;101221.56;;;11.96;67.55
57192;BME280;43052;52.588;13.396;2023-03-21T09:49:39;101222.47;;;11.94;67.30
57192;BME280;43052;52.588;13.396;2023-03-21T09:52:12;101223.34;;;11.99;67.49
57192;BME280;43052;52.588;13.396;2023-03-21T09:54:41;101212.81;;;12.06;67.47
57192;BME280;43052;52.588;13.396;2023-03-21T09:57:30;101215.41;;;12.17;66.96
57192;BME280;43052;52.588;13.396;2023-03-21T10:00:02;101207.53;;;12.20;66.87
57192;BME280;43052;52.588;13.396;2023-03-21T10:02:46;101210.09;;;12.23;66.79
57192;BME280;43052;52.588;13.396;2023-03-21T10:05:25;101210.97;;;12.22;66.71
57192;BME280;43052;52.588;13.396;2023-03-21T10:07:56;101215.34;;;12.27;66.51
57192;BME280;43052;52.588;13.396;2023-03-21T10:10:28;101203.09;;;12.27;66.57
57192;BME280;43052;52.588;13.396;2023-03-21T10:12:56;101199.63;;;12.27;66.44
57192;BME280;43052;52.588;13.396;2023-03-21T10:15:24;101202.25;;;12.23;66.35
57192;BME280;43052;52.588;13.396;2023-03-21T10:18:01;101199.66;;;12.20;66.30
57192;BME280;43052;52.588;13.396;2023-03-21T10:20:32;101203.09;;;12.27;66.06
57192;BME280;43052;52.588;13.396;2023-03-21T10:23:00;101192.63;;;12.22;66.06
57192;BME280;43052;52.588;13.396;2023-03-21T10:25:31;101197.00;;;12.25;65.92
57192;BME280;43052;52.588;13.396;2023-03-21T10:27:58;101194.38;;;12.23;66.07
57192;BME280;43052;52.588;13.396;2023-03-21T10:30:40;101191.72;;;12.30;65.99
57192;BME280;43052;52.588;13.396;2023-03-21T10:33:16;101187.31;;;12.36;65.87
57192;BME280;43052;52.588;13.396;2023-03-21T10:35:47;101188.09;;;12.49;65.31
57192;BME280;43052;52.588;13.396;2023-03-21T10:38:16;101177.44;;;12.69;65.20
57192;BME280;43052;52.588;13.396;2023-03-21T10:40:42;101178.16;;;12.92;64.80
57192;BME280;43052;52.588;13.396;2023-03-21T10:43:34;101178.00;;;13.10;64.11
57192;BME280;43052;52.588;13.396;2023-03-21T10:46:19;101184.94;;;13.18;63.73
57192;BME280;43052;52.588;13.396;2023-03-21T10:48:51;101182.31;;;13.16;63.73
57192;BME280;43052;52.588;13.396;2023-03-21T10:51:20;101177.03;;;13.21;63.37
57192;BME280;43052;52.588;13.396;2023-03-21T10:53:57;101179.66;;;13.21;63.41
57192;BME280;43052;52.588;13.396;2023-03-21T10:56:27;101175.22;;;13.27;63.74
57192;BME280;43052;52.588;13.396;2023-03-21T10:58:55;101182.09;;;13.36;63.38
57192;BME280;43052;52.588;13.396;2023-03-21T11:01:26;101177.81;;;13.30;63.07
57192;BME280;43052;52.588;13.396;2023-03-21T11:03:56;101179.63;;;13.24;62.98
57192;BME280;43052;52.588;13.396;2023-03-21T11:06:28;101175.28;;;13.20;63.04
57192;BME280;43052;52.588;13.396;2023-03-21T11:08:55;101176.22;;;13.15;62.99
57192;BME280;43052;52.588;13.396;2023-03-21T11:11:31;101170.88;;;13.22;62.95
57192;BME280;43052;52.588;13.396;2023-03-21T11:14:03;101168.19;;;13.28;62.57
57192;BME280;43052;52.588;13.396;2023-03-21T11:16:38;101166.34;;;13.36;62.67
57192;BME280;43052;52.588;13.396;2023-03-21T11:19:16;101168.97;;;13.36;62.25
57192;BME280;43052;52.588;13.396;2023-03-21T11:21:41;101150.75;;;13.22;62.51
57192;BME280;43052;52.588;13.396;2023-03-21T11:24:12;101159.47;;;13.26;62.26
57192;BME280;43052;52.588;13.396;2023-03-21T11:26:38;101156.78;;;13.32;62.08
57192;BME280;43052;52.588;13.396;2023-03-21T11:29:37;101152.47;;;13.23;62.10
57192;BME280;43052;52.588;13.396;2023-03-21T11:32:13;101159.53;;;13.18;62.16
57192;BME280;43052;52.588;13.396;2023-03-21T11:34:46;101153.41;;;13.19;62.05
57192;BME280;43052;52.588;13.396;2023-03-21T11:37:19;101150.72;;;13.25;62.18
57192;BME280;43052;52.588;13.396;2023-03-21T11:39:45;101147.06;;;13.37;61.97
57192;BME280;43052;52.588;13.396;2023-03-21T11:42:29;101137.44;;;13.42;61.78
57192;BME280;43052;52.588;13.396;2023-03-21T11:45:09;101136.47;;;13.50;61.55
57192;BME280;43052;52.588;13.396;2023-03-21T11:47:35;101133.88;;;13.48;61.53
57192;BME280;43052;52.588;13.396;2023-03-21T11:50:01;101133.78;;;13.56;61.40
57192;BME280;43052;52.588;13.396;2023-03-21T11:52:35;101131.94;;;13.62;61.05
57192;BME280;43052;52.588;13.396;2023-03-21T12:00:39;101120.09;;;13.98;60.29
57192;BME280;43052;52.588;13.396;2023-03-21T12:03:29;101118.00;;;14.23;59.92
57192;BME280;43052;52.588;13.396;2023-03-21T12:06:02;101118.50;;;14.47;58.90
57192;BME280;43052;52.588;13.396;2023-03-21T12:08:58;101111.38;;;14.52;58.94
57192;BME280;43052;52.588;13.396;2023-03-21T12:27:58;101085.69;;;14.15;58.94
57192;BME280;43052;52.588;13.396;2023-03-21T12:30:38;101084.78;;;14.14;58.86
57192;BME280;43052;52.588;13.396;2023-03-21T12:33:17;101084.88;;;14.09;58.75
57192;BME280;43052;52.588;13.396;2023-03-21T12:41:24;101078.63;;;14.17;58.84
57192;BME280;43052;52.588;13.396;2023-03-21T12:43:59;101068.88;;;14.23;58.88
57192;BME280;43052;52.588;13.396;2023-03-21T12:46:38;101076.66;;;14.31;58.65
57192;BME280;43052;52.588;13.396;2023-03-21T12:49:14;101075.81;;;14.29;58.05
57192;BME280;43052;52.588;13.396;2023-03-21T12:51:45;101065.16;;;14.35;58.23
57192;BME280;43052;52.588;13.396;2023-03-21T12:54:31;101062.34;;;14.46;57.98
57192;BME280;43052;52.588;13.396;2023-03-21T13:02:52;101051.69;;;14.55;57.72
57192;BME280;43052;52.588;13.396;2023-03-21T13:05:27;101046.41;;;14.55;57.93
57192;BME280;43052;52.588;13.396;2023-03-21T13:08:32;101044.50;;;14.65;57.87
57192;BME280;43052;52.588;13.396;2023-03-21T13:11:00;101036.41;;;14.78;57.45
57192;BME280;43052;52.588;13.396;2023-03-21T13:16:28;101040.31;;;14.53;57.48
57192;BME280;43052;52.588;13.396;2023-03-21T13:19:10;101024.78;;;14.39;57.75
57192;BME280;43052;52.588;13.396;2023-03-21T13:22:06;101028.84;;;14.04;57.68
57192;BME280;43052;52.588;13.396;2023-03-21T13:29:25;101023.03;;;13.15;60.12
57192;BME280;43052;52.588;13.396;2023-03-21T13:31:53;101026.69;;;13.01;60.31
57192;BME280;43052;52.588;13.396;2023-03-21T13:34:21;101023.19;;;13.03;60.82
57192;BME280;43052;52.588;13.396;2023-03-21T13:36:48;101020.56;;;13.01;60.89
57192;BME280;43052;52.588;13.396;2023-03-21T13:39:25;101018.09;;;12.87;61.03
57192;BME280;43052;52.588;13.396;2023-03-21T13:41:52;101019.00;;;12.84;61.41
57192;BME280;43052;52.588;13.396;2023-03-21T13:44:28;101018.03;;;12.92;61.60
57192;BME280;43052;52.588;13.396;2023-03-21T13:47:05;101017.16;;;12.93;61.40
57192;BME280;43052;52.588;13.396;2023-03-21T13:53:18;101000.56;;;12.92;61.45
57192;BME280;43052;52.588;13.396;2023-03-21T13:55:47;101013.56;;;13.01;61.28
57192;BME280;43052;52.588;13.396;2023-03-21T13:58:33;100999.56;;;13.03;61.36
57192;BME280;43052;52.588;13.396;2023-03-21T14:01:15;101000.28;;;13.14;61.09
57192;BME280;43052;52.588;13.396;2023-03-21T14:03:44;101004.63;;;13.18;61.17